This is the latest recevied weather packets stored in our database for station/object KA7EII-13. If no packets are shown the sender has not sent any weather packets the latest 10 day(s).
| Time | Temp. | Humidity | Pressure | Rain* | Wind** | Luminosity | Snow |
|---|---|---|---|---|---|---|---|
| 1778059792 | 0.56° C | 64% | 1107.3 hPa | 0 mm | - | 0 W/m² | - |
| 1778059490 | 0.56° C | 67% | 1107.3 hPa | 0 mm | - | 0 W/m² | - |
| 1778059186 | 0.56° C | 68% | 1107.5 hPa | 0 mm | - | 0 W/m² | - |
| 1778058884 | 1.11° C | 66% | 1107.5 hPa | 0 mm | - | 0 W/m² | - |
| 1778058582 | 1.67° C | 63% | 1107.1 hPa | 0 mm | - | 0 W/m² | - |
| 1778058279 | 1.67° C | 62% | 1107.1 hPa | 0 mm | - | 0 W/m² | - |
| 1778057975 | 1.67° C | 62% | 1107.1 hPa | 0 mm | - | 0 W/m² | - |
| 1778057672 | 1.11° C | 64% | 1107.3 hPa | 0 mm | - | 0 W/m² | - |
| 1778057368 | 1.67° C | 63% | 1107.1 hPa | 0 mm | - | 0 W/m² | - |
| 1778057066 | 1.67° C | 62% | 1107 hPa | 0 mm | - | 0 W/m² | - |
| 1778056756 | 2.78° C | 58% | 1107 hPa | 0 mm | - | 0 W/m² | - |
| 1778056454 | 2.78° C | 58% | 1106.8 hPa | 0 mm | - | 0 W/m² | - |
| 1778056151 | 2.78° C | 58% | 1106.9 hPa | 0 mm | - | 0 W/m² | - |
| 1778055848 | 2.78° C | 58% | 1106.9 hPa | 0 mm | - | 0 W/m² | - |
| 1778055543 | 2.78° C | 57% | 1106.8 hPa | 0 mm | - | 0 W/m² | - |
| 1778055242 | 2.78° C | 57% | 1106.7 hPa | 0 mm | - | 0 W/m² | - |
| 1778054939 | 2.78° C | 57% | 1107 hPa | 0 mm | - | 0 W/m² | - |
| 1778054636 | 2.78° C | 57% | 1106.7 hPa | 0 mm | - | 0 W/m² | - |
| 1778054333 | 3.33° C | 57% | 1106.9 hPa | 0 mm | - | 0 W/m² | - |
| 1778054030 | 3.33° C | 57% | 1107 hPa | 0 mm | - | 0 W/m² | - |
| 1778053728 | 3.33° C | 56% | 1107.1 hPa | 0 mm | - | 0 W/m² | - |
| 1778053425 | 3.89° C | 56% | 1106.8 hPa | 0 mm | - | 0 W/m² | - |
| 1778053122 | 3.89° C | 55% | 1106.9 hPa | 0 mm | - | 0 W/m² | - |
| 1778052820 | 3.89° C | 55% | 1106.9 hPa | 0 mm | - | 0 W/m² | - |
| 1778052516 | 3.89° C | 55% | 1107 hPa | 0 mm | - | 0 W/m² | - |
* Rain latest hour (hover to see other rain measurements)
** Current wind speed in m/s (hover to see current wind gust speed)